createdAt,value
2023-01-26T00:01:44.711Z,96.14
2023-01-26T00:07:06.586Z,96.22
2023-01-26T00:12:28.443Z,96.25
2023-01-26T00:17:50.293Z,95.38
2023-01-26T00:23:12.154Z,95.85
2023-01-26T00:28:34.388Z,95.56
2023-01-26T00:33:57.159Z,97.17
2023-01-26T00:39:19.102Z,97.46
2023-01-26T00:44:42.906Z,98.05
2023-01-26T00:50:05.498Z,98.26
2023-01-26T00:55:27.438Z,98.91
2023-01-26T01:00:49.391Z,98.09
2023-01-26T01:06:11.318Z,99.31
2023-01-26T01:11:33.188Z,99.60
2023-01-26T01:16:55.115Z,99.75
2023-01-26T01:22:17.118Z,100.00
2023-01-26T01:27:38.956Z,99.52
2023-01-26T01:33:00.861Z,100.00
2023-01-26T01:38:22.812Z,100.00
2023-01-26T01:43:44.972Z,98.68
2023-01-26T01:49:20.682Z,98.16
2023-01-26T01:54:51.798Z,99.44
2023-01-26T02:00:16.310Z,99.44
2023-01-26T02:05:59.907Z,99.62
2023-01-26T02:11:30.714Z,99.83
2023-01-26T02:16:52.594Z,99.45
2023-01-26T02:22:35.783Z,99.23
2023-01-26T02:27:57.637Z,100.00
2023-01-26T02:33:25.436Z,98.80
2023-01-26T02:39:05.840Z,99.96
2023-01-26T02:44:29.224Z,99.46
2023-01-26T02:49:51.073Z,99.97
2023-01-26T02:55:12.950Z,99.21
2023-01-26T03:00:37.210Z,98.89
2023-01-26T03:05:59.221Z,98.69
2023-01-26T03:11:21.123Z,100.00
2023-01-26T03:16:43.650Z,98.80
2023-01-26T03:22:05.738Z,99.43
2023-01-26T03:27:28.326Z,99.03
2023-01-26T03:32:50.463Z,98.93
2023-01-26T03:38:12.733Z,99.92
2023-01-26T03:43:34.993Z,98.48
2023-01-26T03:48:56.895Z,99.02
2023-01-26T03:54:18.823Z,98.44
2023-01-26T03:59:40.676Z,98.59
2023-01-26T04:05:02.881Z,98.27
2023-01-26T04:10:25.557Z,99.98
2023-01-26T04:15:48.370Z,100.00
2023-01-26T04:21:10.247Z,100.00
2023-01-26T04:26:32.338Z,100.00
2023-01-26T04:31:54.233Z,100.00
2023-01-26T04:37:16.147Z,100.00
2023-01-26T04:42:38.092Z,100.00
2023-01-26T04:47:59.979Z,100.00
2023-01-26T04:53:21.895Z,100.00
2023-01-26T04:58:43.838Z,100.00
2023-01-26T05:04:06.563Z,100.00
2023-01-26T05:09:28.536Z,100.00
2023-01-26T05:14:50.465Z,100.00
2023-01-26T05:20:12.859Z,100.00
2023-01-26T05:25:34.823Z,100.00
2023-01-26T05:30:56.813Z,100.00
2023-01-26T05:36:18.723Z,100.00
2023-01-26T05:41:40.583Z,100.00
2023-01-26T05:47:02.418Z,100.00
2023-01-26T05:52:24.245Z,100.00
2023-01-26T05:57:46.244Z,100.00
2023-01-26T06:03:08.149Z,100.00
2023-01-26T06:08:30.052Z,100.00
2023-01-26T06:13:51.943Z,100.00
2023-01-26T06:19:13.846Z,100.00
2023-01-26T06:24:35.740Z,100.00
2023-01-26T06:29:57.637Z,100.00
2023-01-26T06:35:19.564Z,100.00
2023-01-26T06:40:41.396Z,100.00
2023-01-26T06:46:05.041Z,100.00
2023-01-26T06:51:33.037Z,100.00
2023-01-26T06:56:54.866Z,100.00
2023-01-26T07:02:19.270Z,100.00
2023-01-26T07:07:41.122Z,100.00
2023-01-26T07:13:06.418Z,100.00
2023-01-26T07:18:28.500Z,100.00
2023-01-26T07:23:50.965Z,100.00
2023-01-26T07:29:12.854Z,100.00
2023-01-26T07:34:34.687Z,100.00
2023-01-26T07:39:56.668Z,100.00
2023-01-26T07:45:18.535Z,100.00
2023-01-26T07:50:40.374Z,100.00
2023-01-26T07:56:13.553Z,100.00
2023-01-26T08:01:35.373Z,100.00
2023-01-26T08:06:57.224Z,100.00
2023-01-26T08:12:19.150Z,99.36
2023-01-26T08:17:40.997Z,97.67
2023-01-26T08:23:02.824Z,96.82
2023-01-26T08:28:24.947Z,95.15
2023-01-26T08:33:48.860Z,94.48
2023-01-26T08:39:10.728Z,93.38
2023-01-26T08:44:32.572Z,91.92
2023-01-26T08:49:54.417Z,91.43
2023-01-26T08:55:16.345Z,91.82
2023-01-26T09:00:38.208Z,90.93
2023-01-26T09:06:01.129Z,89.98
2023-01-26T09:11:22.979Z,88.83
2023-01-26T09:16:44.932Z,88.30
2023-01-26T09:22:06.759Z,87.90
2023-01-26T09:27:28.728Z,87.16
2023-01-26T09:32:51.402Z,86.97
2023-01-26T09:38:13.281Z,86.67
2023-01-26T09:43:40.309Z,87.24
2023-01-26T09:49:17.458Z,86.78
2023-01-26T09:55:02.457Z,87.66
2023-01-26T10:00:26.999Z,86.85
2023-01-26T10:05:59.158Z,85.82
2023-01-26T10:11:28.198Z,86.22
2023-01-26T10:16:53.726Z,85.69
2023-01-26T10:22:30.753Z,85.34
2023-01-26T10:27:52.868Z,85.06
2023-01-26T10:33:18.983Z,85.89
2023-01-26T10:38:42.565Z,85.45
2023-01-26T10:44:20.541Z,85.36
2023-01-26T10:49:42.379Z,85.38
2023-01-26T10:55:13.322Z,85.72
2023-01-26T11:00:35.403Z,85.46
2023-01-26T11:06:12.183Z,84.33
2023-01-26T11:11:34.161Z,84.07
2023-01-26T11:17:08.998Z,83.53
2023-01-26T11:22:33.875Z,83.65
2023-01-26T11:28:22.549Z,81.82
2023-01-26T11:33:56.470Z,82.55
2023-01-26T11:39:36.280Z,82.08
2023-01-26T11:45:16.492Z,81.55
2023-01-26T11:50:45.715Z,83.22
2023-01-26T11:56:33.298Z,82.92
2023-01-26T12:02:14.508Z,82.92
2023-01-26T12:07:55.032Z,83.11
2023-01-26T12:13:36.105Z,82.09
2023-01-26T12:19:24.943Z,82.69
2023-01-26T12:25:21.244Z,82.68
2023-01-26T12:30:49.926Z,83.26
2023-01-26T12:36:45.122Z,82.94
2023-01-26T12:42:24.002Z,82.77
2023-01-26T12:47:51.789Z,83.31
2023-01-26T12:53:20.824Z,83.34
2023-01-26T12:58:45.827Z,82.84
2023-01-26T13:04:16.740Z,83.43
2023-01-26T13:09:38.658Z,82.95
2023-01-26T13:15:01.150Z,83.72
2023-01-26T13:20:23.056Z,84.41
2023-01-26T13:26:10.140Z,85.19
2023-01-26T13:31:34.196Z,84.66
2023-01-26T13:37:05.271Z,85.70
2023-01-26T13:42:37.728Z,85.45
2023-01-26T13:48:05.583Z,86.15
2023-01-26T13:53:35.131Z,85.37
2023-01-26T13:59:15.523Z,84.69
2023-01-26T14:04:37.365Z,85.39
2023-01-26T14:10:02.114Z,85.96
2023-01-26T14:15:32.580Z,85.76
2023-01-26T14:21:06.220Z,85.25
2023-01-26T14:26:32.519Z,85.94
2023-01-26T14:31:56.863Z,85.38
2023-01-26T14:37:18.972Z,86.01
2023-01-26T14:42:41.292Z,86.13
2023-01-26T14:48:09.087Z,86.92
2023-01-26T15:00:01.376Z,87.43
2023-01-26T15:05:33.195Z,86.48
2023-01-26T15:10:59.291Z,86.28
2023-01-26T15:16:24.367Z,85.93
2023-01-26T15:21:46.990Z,85.89
2023-01-26T15:27:12.298Z,85.97
2023-01-26T15:32:40.155Z,86.62
2023-01-26T15:38:04.521Z,86.14
2023-01-26T15:43:26.557Z,86.44
2023-01-26T15:48:48.789Z,86.64
2023-01-26T15:54:11.422Z,86.50
2023-01-26T15:59:33.315Z,85.49
2023-01-26T16:04:55.121Z,86.16
2023-01-26T16:10:17.387Z,85.51
2023-01-26T16:15:41.708Z,85.35
2023-01-26T16:21:15.572Z,84.43
2023-01-26T16:26:37.783Z,84.72
2023-01-26T16:31:59.986Z,84.70
2023-01-26T16:37:21.842Z,84.72
2023-01-26T16:42:47.497Z,84.92
2023-01-26T16:48:15.041Z,84.98
2023-01-26T16:53:36.929Z,85.47
2023-01-26T16:58:58.967Z,85.88
2023-01-26T17:04:20.783Z,86.92
2023-01-26T17:09:42.616Z,86.82
2023-01-26T17:15:06.205Z,86.51
2023-01-26T17:20:28.058Z,86.79
2023-01-26T17:25:56.973Z,86.31
2023-01-26T17:31:21.347Z,86.54
2023-01-26T17:36:45.793Z,86.10
2023-01-26T17:42:07.953Z,85.83
2023-01-26T17:47:32.843Z,85.50
2023-01-26T17:52:54.679Z,84.96
2023-01-26T17:58:16.560Z,84.96
2023-01-26T18:03:42.363Z,83.51
2023-01-26T18:09:05.505Z,84.45
2023-01-26T18:14:27.330Z,84.37
2023-01-26T18:19:49.176Z,83.42
2023-01-26T18:25:11.381Z,83.63
2023-01-26T18:30:33.487Z,82.82
2023-01-26T18:36:03.554Z,82.66
2023-01-26T18:41:27.943Z,82.83
2023-01-26T18:46:49.858Z,82.63
2023-01-26T18:52:11.729Z,82.57
2023-01-26T18:57:33.621Z,82.57
2023-01-26T19:02:55.534Z,82.78
2023-01-26T19:08:17.492Z,82.14
2023-01-26T19:13:39.439Z,82.48
2023-01-26T19:19:01.292Z,82.45
2023-01-26T19:24:23.394Z,82.02
2023-01-26T19:29:45.238Z,81.35
2023-01-26T19:35:07.454Z,81.51
2023-01-26T19:40:29.331Z,81.29
2023-01-26T19:45:53.506Z,80.93
2023-01-26T19:51:18.690Z,81.01
2023-01-26T19:56:41.337Z,80.82
2023-01-26T20:02:04.333Z,80.87
2023-01-26T20:07:26.229Z,81.29
2023-01-26T20:12:48.072Z,80.50
2023-01-26T20:18:10.557Z,81.61
2023-01-26T20:23:32.877Z,80.71
2023-01-26T20:28:57.939Z,81.19
2023-01-26T20:34:20.194Z,80.50
2023-01-26T20:39:42.117Z,81.50
2023-01-26T20:45:04.107Z,80.90
2023-01-26T20:50:26.001Z,80.50
2023-01-26T20:55:47.999Z,80.24
2023-01-26T21:01:13.419Z,80.31
2023-01-26T21:06:36.048Z,80.88
2023-01-26T21:11:57.847Z,80.76
2023-01-26T21:17:19.688Z,80.09
2023-01-26T21:22:41.616Z,81.06
2023-01-26T21:28:03.473Z,81.31
2023-01-26T21:33:25.280Z,81.66
2023-01-26T21:38:48.417Z,81.82
2023-01-26T21:44:12.439Z,82.20
2023-01-26T21:49:34.419Z,82.14
2023-01-26T21:54:56.268Z,82.39
2023-01-26T22:00:18.698Z,82.97
2023-01-26T22:05:40.582Z,82.99
2023-01-26T22:11:02.488Z,82.57
2023-01-26T22:16:24.737Z,81.94
2023-01-26T22:21:46.888Z,82.16
2023-01-26T22:27:08.726Z,81.86
2023-01-26T22:32:30.765Z,82.69
2023-01-26T22:37:54.065Z,81.70
2023-01-26T22:43:17.222Z,81.58
2023-01-26T22:48:39.099Z,81.96
2023-01-26T22:54:01.217Z,82.19
2023-01-26T22:59:23.101Z,82.51
2023-01-26T23:04:44.998Z,81.52
2023-01-26T23:10:07.470Z,81.23
2023-01-26T23:15:29.755Z,81.60
2023-01-26T23:20:51.929Z,82.00
2023-01-26T23:26:13.869Z,81.27
2023-01-26T23:31:35.826Z,81.39
2023-01-26T23:36:57.770Z,81.22
2023-01-26T23:42:19.618Z,81.47
2023-01-26T23:47:41.682Z,81.26
2023-01-26T23:53:03.620Z,81.52
2023-01-26T23:58:25.605Z,81.83
